Tiempo atmosférico en la estación meteorológica de Forua, Bizkaia (45 m.)



Fecha
DESCASC
Temp. máxima en grados centígrados (hora)
DESCASC
Temp. mínima en grados centígrados (hora)
DESCASC
Temp. media en grados centígrados
DESCASC
Racha de viento máxima en m/sg (hora)
DESCASC
Velocidad máxima media en intervalos de 10 minutos(hora)
DESCASC
Precipitaciones diarias en mm
DESCASC
Precipitaciones de 00:00 a 06:00 en mm
DESCASC
Precipitaciones de 06:00 a 12:00 en mm
DESCASC
Precipitaciones de 12:00 a 18:00 en mm
DESCASC
Precipitaciones de 18:00 a 24:00 en mm
DESCASC
18-02-2018 11.5 (16:20) 3.8 (03:40) 7.6 10 (16:10) 5 (16:40) 0 0 0 0 0
17-02-2018 13.1 (16:40) 5.3 (23:50) 9.2 12.22 (02:10) 7.22 (03:20) 3 0.6 2 0.4 0
16-02-2018 17.2 (13:00) 9.9 (08:10) 13.6 7.22 (15:20) 4.44 (15:10) 0 0 0 0 0
15-02-2018 19.4 (14:10) 8 (00:00) 13.7 9.44 (16:40) 5.28 (16:50) 0 0 0 0 0
14-02-2018 14.3 (16:40) 5.9 (00:00) 10.1 6.11 (14:10) 3.06 (15:10) 2.4 0.8 1.2 0.4 0
13-02-2018 7.7 (14:40) -0.8 (-00:0) 3.4 14.17 (10:20) 8.33 (09:40) 13.2 0 1.2 10 2
12-02-2018 7.5 (00:00) -0.1 (00:00) 3.7 15 (05:20) 6.11 (05:30) 13 0 2 11 0
11-02-2018 11.8 (12:50) 7.1 (00:00) 9.5 10.56 (20:20) 6.39 (20:30) 0 0 0 0 0
10-02-2018 9.8 (14:30) 3.5 (00:00) 6.7 10 (08:20) 4.72 (07:40) 0 0 0 0 0
09-02-2018 8.4 (19:10) -0.9 (-00:0) 3.7 15 (16:00) 8.61 (16:30) 2.8 0 0.2 2.6 0
08-02-2018 6.1 (16:50) 0.1 (00:00) 3.1 5.56 (13:30) 3.33 (06:20) 14.2 6.2 7.4 0.6 0
07-02-2018 7.1 (13:30) 0.8 (00:00) 3.9 10.28 (14:00) 4.17 (14:00) 16.8 4.2 5.2 5.4 2
06-02-2018 7.8 (14:40) 2.4 (00:00) 5.1 9.72 (00:20) 5 (00:20) 3.8 0.4 0 0.2 3.2
05-02-2018 6.6 (12:20) 4 (00:00) 5.3 10.56 (21:10) 5.56 (21:10) 17.6 3.8 3 4.4 6.4
04-02-2018 9.9 (14:40) 3.5 (00:00) 6.7 8.89 (15:50) 4.44 (16:00) 11.2 7.6 1 1 1.6
03-02-2018 9.7 (16:40) 3.3 (00:00) 6.5 15 (17:20) 8.06 (18:10) 37.8 7.4 7.4 10.6 12.4
02-02-2018 8.9 (15:30) 2.6 (00:00) 5.7 11.67 (03:20) 6.39 (03:20) 18 9.6 2.6 2.6 3.2
01-02-2018 9.4 (04:00) 4 (00:00) 6.7 12.78 (12:00) 6.11 (15:30) 35.2 9.4 12.6 7.6 5.6
31-01-2018 14.4 (15:30) 5 (00:00) 9.7 7.78 (15:50) 3.89 (12:00) 0 0 0 0 0
30-01-2018 11.6 (14:20) 5.5 (00:00) 8.6 5.56 (15:00) 3.33 (15:00) 0 0 0 0 0
29-01-2018 13.8 (14:00) 0.8 (00:00) 7.3 7.22 (15:30) 4.44 (15:30) 0 0 0 0 0
28-01-2018 11.7 (13:30) 0.9 (00:00) 6.3 7.22 (16:30) 4.44 (16:40) 0.2 0 0.2 0 0
27-01-2018 11.9 (14:20) 4 (00:00) 7.9 10 (02:40) 5.28 (02:40) 2.8 1.6 1.2 0 0
26-01-2018 10.4 (16:20) 6.6 (00:00) 8.5 12.5 (21:30) 6.39 (08:30) 19 4.6 5.4 3.8 5.2
25-01-2018 11.9 (08:20) 6.4 (00:00) 9.1 10 (12:40) 5.83 (12:50) 16.8 0 7.6 6 3.2
24-01-2018 18 (15:50) 5.2 (00:00) 11.6 9.44 (13:30) 6.11 (13:30) 0.2 0 0 0.2 0
23-01-2018 15.8 (15:20) 8.5 (00:00) 12.2 4.17 (00:50) 3.06 (00:50) 0.6 0.6 0 0 0
22-01-2018 15.4 (14:10) 10.2 (00:00) 12.8 6.67 (13:10) 4.17 (13:10) 6 0 0 0.4 5.6

Gráficas

Temp. máximas Temp. mínimas Temp. medias Precipitaciones Rachas de viento máximas Velocidades máximas media en intervalos de 10 minutos

Datos horarios

Fecha y hora oficial Temperatura (ºC) Velocidad del viento (km/h) Dirección del viento Racha (km/h) Dirección de racha Precipitación (mm) Presión (hPa) Tendencia (hPa) Humedad (%)
2018-02-20 23:00:00 10.3 9 Norte 27 Norte 0 -- -- 91
2018-02-20 22:00:00 10.7 12 Nordeste 27 Norte 0 -- -- 89
2018-02-20 21:00:00 10.6 16 Norte 30 Nordeste 0 -- -- 90
2018-02-20 20:00:00 10.9 17 Norte 30 Norte 0 -- -- 89
2018-02-20 19:00:00 10.9 12 Nordeste 30 Norte 0 -- -- 87
2018-02-20 18:00:00 11.2 13 Norte 34 Nordeste 0 -- -- 86
2018-02-20 17:00:00 11.5 22 Norte 45 Norte 0 -- -- 85
2018-02-20 16:00:00 11.5 16 Norte 42 Norte 0 -- -- 85
2018-02-20 15:00:00 11.7 20 Nordeste 37 Nordeste 0 -- -- 86
2018-02-20 14:00:00 12.1 15 Norte -- -- -- -- -- 84
2018-02-20 13:00:00 -- -- -- -- -- -- -- -- --
2018-02-20 12:00:00 -- -- -- -- -- -- -- -- --
2018-02-20 11:00:00 -- -- -- -- -- -- -- -- --
2018-02-20 10:00:00 10.6 15 Norte 29 Nordeste 0 -- -- 95
2018-02-20 09:00:00 10.6 12 Norte 23 Norte 0 -- -- 95
2018-02-20 08:00:00 10.5 10 Norte 23 Nordeste 0 -- -- 94
2018-02-20 07:00:00 10.6 14 Norte 29 Norte 0 -- -- 95
2018-02-20 06:00:00 10.7 16 Norte 31 Nordeste 0 -- -- 95
2018-02-20 05:00:00 10.6 13 Norte 27 Nordeste 0 -- -- 96
2018-02-20 04:00:00 10.6 10 Norte 25 Norte 0 -- -- 97
2018-02-20 03:00:00 10.7 16 Norte 34 Nordeste 0 -- -- 99
2018-02-20 02:00:00 10.8 20 Norte 37 Nordeste 0 -- -- 99
2018-02-20 01:00:00 10.9 18 Nordeste 35 Norte 0 -- -- 100
2018-02-20 00:00:00 11 15 Nordeste 33 Nordeste 0 -- -- 100
2018-02-19 23:00:00 11 22 Nordeste 41 Nordeste 0 -- -- 100
2018-02-19 22:00:00 11.3 16 Nordeste 34 Norte 0 -- -- 100
2018-02-19 21:00:00 11.1 14 Nordeste 32 Norte 0 -- -- 100
2018-02-19 20:00:00 11.1 4 Nordeste 12 Norte 0 -- -- 100
2018-02-19 19:00:00 11.2 7 Nordeste 18 Nordeste 0 -- -- 98
2018-02-19 18:00:00 11.5 7 Norte 21 Norte 0 -- -- 97
2018-02-19 17:00:00 11.5 10 Nordeste 20 Norte 0 -- -- 98
2018-02-19 16:00:00 11.6 11 Nordeste 19 Norte 0 -- -- 99
2018-02-19 15:00:00 11.6 8 Nordeste 22 Norte 0 -- -- 98
2018-02-19 14:00:00 11.6 8 Nordeste 21 Norte 0 -- -- 100
2018-02-19 13:00:00 11.4 10 Norte 22 Nordeste 0 -- -- 100
2018-02-19 12:00:00 11.3 6 Nordeste 13 Norte 0 -- -- 100
2018-02-19 11:00:00 10.6 4 Oeste 9 Oeste 0 -- -- 100
2018-02-19 10:00:00 10.1 5 Oeste 9 Sudoeste 0 -- -- 100
2018-02-19 09:00:00 9.7 7 Sudoeste 12 Sudoeste 0 -- -- 100
2018-02-19 08:00:00 9.5 6 Oeste 9 Sudoeste 0 -- -- 100
2018-02-19 07:00:00 9.5 4 Sudoeste 10 Sudoeste 0 -- -- 100
2018-02-19 06:00:00 9.6 3 Sudoeste 8 Sudoeste 0 -- -- 100
2018-02-19 05:00:00 9.6 3 Sudoeste 7 Sudoeste 0 -- -- 100
2018-02-19 04:00:00 9.6 3 Sudoeste 6 Sudoeste 0 -- -- 100
2018-02-19 03:00:00 9.6 5 Sudoeste 14 Noroeste 0 -- -- 100
2018-02-19 02:00:00 9.6 3 Sudoeste 14 Norte 0 -- -- 100
2018-02-19 01:00:00 9.6 4 Sudoeste 17 Noroeste 0 -- -- 100
2018-02-19 00:00:00 9.6 8 Sudoeste 15 Sudoeste 0 -- -- 100
2018-02-18 23:00:00 9.4 3 Sur 12 Sudoeste 0 -- -- 100
2018-02-18 22:00:00 9.5 8 Oeste 15 Oeste 0 -- -- 100
2018-02-18 21:00:00 9.6 11 Sudoeste 18 Sudoeste 0 -- -- 99
2018-02-18 20:00:00 9.7 5 Oeste 12 Nordeste 0 -- -- 99
2018-02-18 19:00:00 9.8 6 Sur 11 Oeste 0 -- -- 97
2018-02-18 18:00:00 10.6 5 Oeste 30 Noroeste 0 -- -- 90
2018-02-18 17:00:00 11.3 9 Noroeste 36 Noroeste 0 -- -- 81
2018-02-18 16:00:00 11.3 10 Noroeste 29 Norte 0 -- -- 82
2018-02-18 15:00:00 10.4 5 Sudoeste 14 Sudoeste 0 -- -- 84
2018-02-18 14:00:00 9.6 4 Sur 16 Sur 0 -- -- 87
2018-02-18 13:00:00 9 5 Sur 26 Oeste 0 -- -- 91
2018-02-18 12:00:00 9.3 9 Noroeste 19 Noroeste 0 -- -- 92
2018-02-18 11:00:00 8.5 6 Sudoeste 13 Sudoeste 0 -- -- 100
2018-02-18 10:00:00 7.3 6 Sudoeste 12 Sudoeste 0 -- -- 100
2018-02-18 09:00:00 5.9 8 Sudoeste 14 Sudoeste 0 -- -- 100
2018-02-18 08:00:00 5.6 9 Sudoeste 13 Sudoeste 0 -- -- 100
2018-02-18 07:00:00 5.4 9 Sudoeste 13 Sudoeste 0 -- -- 100
2018-02-18 06:00:00 5.1 9 Sudoeste 13 Sudoeste 0 -- -- 100
2018-02-18 05:00:00 4.8 6 Sudoeste 12 Sudoeste 0 -- -- 100
2018-02-18 04:00:00 4.2 5 Sudoeste 9 Sur 0 -- -- 100
2018-02-18 03:00:00 4.2 5 Sudoeste 9 Sudoeste 0 -- -- 100
2018-02-18 02:00:00 4.8 3 Sudoeste 8 Sudoeste 0 -- -- 100
2018-02-18 01:00:00 4.9 4 Sudoeste 7 Sudoeste 0 -- -- 100
2018-02-18 00:00:00 5.3 4 Sur 6 Sudoeste 0 -- -- 100
2018-02-17 23:00:00 5.9 4 Sur 9 Sur 0 -- -- 99
2018-02-17 22:00:00 6.6 7 Oeste 11 Oeste 0 -- -- 98
2018-02-17 21:00:00 6.7 7 Sudoeste 10 Oeste 0 -- -- 96
2018-02-17 20:00:00 8.1 5 Sur 8 Sur 0 -- -- 90
2018-02-17 19:00:00 9.6 3 Nordeste 14 Norte 0 -- -- 83
2018-02-17 18:00:00 11 7 Norte 26 Nordeste 0 -- -- 78
2018-02-17 17:00:00 12 15 Nordeste 30 Nordeste 0 -- -- 76
2018-02-17 16:00:00 11.7 12 Norte 26 Norte 0 -- -- 77
2018-02-17 15:00:00 12 12 Norte 39 Norte 0.2 -- -- 76
2018-02-17 14:00:00 12.9 13 Nordeste 35 Norte 0.2 -- -- 75
2018-02-17 13:00:00 12.5 13 Norte 29 Norte 0 -- -- 76
2018-02-17 12:00:00 12.3 10 Norte 18 Norte 0 -- -- 87
2018-02-17 11:00:00 9.9 4 Noroeste 19 Oeste 1 -- -- 96
2018-02-17 10:00:00 9.5 8 Sudoeste 17 Sudoeste 0 -- -- 99
2018-02-17 09:00:00 8.9 9 Sudoeste 18 Noroeste 0.2 -- -- 99
2018-02-17 08:00:00 9.1 3 Sudoeste 18 Noroeste 0.8 -- -- 95
2018-02-17 07:00:00 9.7 9 Noroeste 24 Noroeste 0 -- -- 91
2018-02-17 06:00:00 9.9 10 Noroeste 33 Nordeste 0 -- -- 81
2018-02-17 05:00:00 10.5 14 Norte 36 Norte 0 -- -- 86
2018-02-17 04:00:00 10.4 12 Nordeste 39 Nordeste 0.4 -- -- 96
2018-02-17 03:00:00 11.7 17 Nordeste 44 Nordeste 0 -- -- 92
2018-02-17 02:00:00 12.7 15 Nordeste 37 Nordeste 0.2 -- -- 93
2018-02-17 01:00:00 12.1 11 Oeste 20 Oeste 0 -- -- 98
2018-02-17 00:00:00 12.2 5 Noroeste 18 Oeste 0 -- -- 97
2018-02-16 23:00:00 12.1 7 Sudoeste 15 Sudoeste 0 -- -- 100
2018-02-16 22:00:00 11.4 6 Sudoeste 10 Sudoeste 0 -- -- 100
2018-02-16 21:00:00 11.2 4 Nordeste 6 Nordeste 0 -- -- 99
2018-02-16 20:00:00 12 2 Nordeste 5 Norte 0 -- -- 98
2018-02-16 19:00:00 12.5 5 Nordeste 7 Nordeste 0 -- -- 96
2018-02-16 18:00:00 13.4 5 Nordeste 11 Nordeste 0 -- -- 92
2018-02-16 17:00:00 14.4 4 Nordeste 23 Nordeste 0 -- -- 92
2018-02-16 16:00:00 14.2 15 Nordeste 26 Nordeste 0 -- -- 91
2018-02-16 15:00:00 16 10 Nordeste 21 Nordeste 0 -- -- 87
2018-02-16 14:00:00 16.5 12 Nordeste 21 Nordeste 0 -- -- 84
2018-02-16 13:00:00 17.2 7 Nordeste 14 Nordeste 0 -- -- 84
2018-02-16 12:00:00 15.6 6 Nordeste 11 Nordeste 0 -- -- 88
2018-02-16 11:00:00 14.4 2 Sudoeste 10 Sudoeste 0 -- -- 93
2018-02-16 10:00:00 11 6 Sudoeste 9 Oeste 0 -- -- 100
2018-02-16 09:00:00 10 3 Oeste 8 Sudoeste 0 -- -- 100
2018-02-16 08:00:00 10.1 6 Sudoeste 8 Sudoeste 0 -- -- 100
2018-02-16 07:00:00 10.1 5 Sudoeste 8 Sudoeste 0 -- -- 100
2018-02-16 06:00:00 10.2 3 Sudoeste 7 Sudoeste 0 -- -- 99
2018-02-16 05:00:00 10.7 5 Sudoeste 8 Oeste 0 -- -- 98
2018-02-16 04:00:00 11.1 5 Sudoeste 6 Sudoeste 0 -- -- 97
2018-02-16 03:00:00 11.5 2 Noroeste 6 Sudoeste 0 -- -- 96
2018-02-16 02:00:00 12.2 0 Calma 8 Nordeste 0 -- -- 95
2018-02-16 01:00:00 12.5 6 Nordeste 20 Nordeste 0 -- -- 95
2018-02-16 00:00:00 12.5 2 Nordeste 9 Sudoeste 0 -- -- 89
2018-02-15 23:00:00 14 8 Oeste 10 Sudoeste 0 -- -- 81
2018-02-15 22:00:00 14.8 5 Sudoeste 10 Sudoeste 0 -- -- 78
2018-02-15 21:00:00 15.2 7 Sudoeste 14 Sudoeste 0 -- -- 76
2018-02-15 20:00:00 15.6 5 Sudoeste 17 Sudoeste 0 -- -- 75
2018-02-15 19:00:00 16.3 9 Sudoeste 18 Sudoeste 0 -- -- 72
2018-02-15 18:00:00 17.4 10 Sudoeste 31 Sudoeste 0 -- -- 69
2018-02-15 17:00:00 18 18 Oeste 34 Oeste 0 -- -- 64
2018-02-15 16:00:00 18.9 16 Oeste 27 Oeste 0 -- -- 64
2018-02-15 15:00:00 18.9 8 Sudoeste 27 Sudoeste 0 -- -- 66
2018-02-15 14:00:00 18.9 9 Sudoeste 28 Sudoeste 0 -- -- 66
2018-02-15 13:00:00 17.7 11 Oeste 22 Oeste 0 -- -- 70
2018-02-15 12:00:00 17.7 10 Sudoeste 24 Sudoeste 0 -- -- 69
2018-02-15 11:00:00 16.9 10 Sudoeste 21 Sudoeste 0 -- -- 71
2018-02-15 10:00:00 14.6 9 Sudoeste 16 Sur 0 -- -- 84
2018-02-15 09:00:00 12.3 10 Sudoeste 18 Sudoeste 0 -- -- 85
2018-02-15 08:00:00 11.3 9 Sudoeste 17 Sudoeste 0 -- -- 87
2018-02-15 07:00:00 10.7 8 Sudoeste 16 Sudoeste 0 -- -- 89
2018-02-15 06:00:00 10.5 4 Sudoeste 11 Sudoeste 0 -- -- 89
2018-02-15 05:00:00 10.6 7 Sudoeste 15 Sudoeste 0 -- -- 92
2018-02-15 04:00:00 9 8 Sudoeste 12 Sudoeste 0 -- -- 100
2018-02-15 03:00:00 8.4 8 Sudoeste 10 Sudoeste 0 -- -- 99
2018-02-15 02:00:00 9 7 Sudoeste 10 Sudoeste 0 -- -- 97
2018-02-15 01:00:00 9.2 8 Sudoeste 10 Sudoeste 0 -- -- 99
2018-02-15 00:00:00 9.4 8 Sudoeste 9 Sudoeste 0 -- -- 98
2018-02-14 23:00:00 9.9 6 Sudoeste 10 Sudoeste 0 -- -- 97
2018-02-14 22:00:00 10.4 8 Sudoeste 10 Sudoeste 0 -- -- 94
2018-02-14 21:00:00 11.1 7 Sudoeste 9 Oeste 0 -- -- 94
2018-02-14 20:00:00 11.7 6 Oeste 9 Sudoeste 0 -- -- 92
2018-02-14 19:00:00 13 5 Sudoeste 9 Sudoeste 0 -- -- 85
2018-02-14 18:00:00 14 3 Sudoeste 7 Sudoeste 0 -- -- 81
2018-02-14 17:00:00 14.3 3 Sur 12 Sudoeste 0 -- -- 79
2018-02-14 16:00:00 13.9 5 Sudoeste 19 Sudoeste 0 -- -- 83
2018-02-14 15:00:00 13 9 Sudoeste 22 Sudoeste 0 -- -- 87
2018-02-14 14:00:00 12.1 9 Sudoeste 19 Sudoeste 0.2 -- -- 92
2018-02-14 13:00:00 11.7 8 Sudoeste 15 Sur 0.2 -- -- 93
2018-02-14 12:00:00 11.2 8 Sudoeste 19 Oeste 0.4 -- -- 93
2018-02-14 11:00:00 9.9 4 Sur 8 Sudeste 0 -- -- 100
2018-02-14 10:00:00 8.7 6 Sur 14 Sur 0 -- -- 100
2018-02-14 09:00:00 7.2 5 Sudoeste 12 Sudoeste 0.4 -- -- 100
2018-02-14 08:00:00 6.6 8 Oeste 10 Oeste 0.4 -- -- 100
2018-02-14 07:00:00 6.6 3 Oeste 10 Sudoeste 0 -- -- 100
2018-02-14 06:00:00 6.5 7 Oeste 10 Sudoeste 0 -- -- 100
2018-02-14 05:00:00 6.2 7 Sudoeste 10 Oeste 0.2 -- -- 100
2018-02-14 04:00:00 6.1 8 Sudoeste 10 Sudoeste 0 -- -- 100
2018-02-14 03:00:00 6.2 3 Sudoeste 8 Sudoeste 0.4 -- -- 100
2018-02-14 02:00:00 6.2 6 Oeste 12 Sudoeste 0.2 -- -- 100
2018-02-14 01:00:00 6.1 8 Sudoeste 11 Sudoeste 0 -- -- 100
2018-02-14 00:00:00 5.9 8 Sudoeste 10 Sudoeste 0 -- -- 100
2018-02-13 23:00:00 6.1 5 Sur 15 Oeste 0 -- -- 100
2018-02-13 22:00:00 6.4 12 Oeste 16 Sudoeste 0 -- -- 100
2018-02-13 21:00:00 6.4 9 Sudoeste 16 Sudoeste 0 -- -- 100
2018-02-13 20:00:00 6.4 7 Sudoeste 17 Oeste 0.2 -- -- 100
2018-02-13 19:00:00 6.4 13 Oeste 20 Oeste 1.8 -- -- 100
2018-02-13 18:00:00 6.7 12 Sudoeste 22 Oeste 2.8 -- -- 98
2018-02-13 17:00:00 7.2 8 Oeste 24 Nordeste 4 -- -- 95
2018-02-13 16:00:00 7.4 6 Sudoeste 20 Oeste 1.4 -- -- 94
2018-02-13 15:00:00 7.6 10 Oeste 29 Oeste 0.2 -- -- 84
2018-02-13 14:00:00 7 22 Oeste 36 Sudoeste 1.2 -- -- 87
2018-02-13 13:00:00 7.1 15 Oeste 37 Oeste 0.4 -- -- 80
2018-02-13 12:00:00 6.6 17 Oeste 41 Noroeste 0.8 -- -- 84
2018-02-13 11:00:00 6.7 18 Oeste 51 Oeste 0.2 -- -- 77
2018-02-13 10:00:00 6.8 27 Oeste 49 Oeste 0 -- -- 73
2018-02-13 09:00:00 4.9 18 Sudoeste 31 Sudoeste 0 -- -- 78
2018-02-13 08:00:00 3.3 12 Sudoeste 23 Sudoeste 0.2 -- -- 88
2018-02-13 07:00:00 0.9 8 Sudoeste 17 Sudoeste 0 -- -- 100
2018-02-13 06:00:00 0.1 3 Sudoeste 13 Sudoeste 0 -- -- 100
2018-02-13 05:00:00 -0.3 9 Sudoeste 12 Sudoeste 0 -- -- 100
2018-02-13 04:00:00 -0.6 8 Sudoeste 12 Sudoeste 0 -- -- 100
2018-02-13 03:00:00 -0.8 9 Sudoeste 12 Sudoeste 0 -- -- 100
2018-02-13 02:00:00 -0.6 9 Sudoeste 14 Sudoeste 0 -- -- 100
2018-02-13 01:00:00 -0.2 8 Sudoeste 12 Sudoeste 0 -- -- 100
2018-02-13 00:00:00 -0.1 7 Sudoeste 11 Sudoeste 0 -- -- 100
2018-02-12 23:00:00 0.6 6 Sudoeste 12 Sudoeste 0 -- -- 100
2018-02-12 22:00:00 0.7 7 Sudoeste 13 Sudoeste 0 -- -- 100
2018-02-12 21:00:00 1 9 Sudoeste 12 Sudoeste 0 -- -- 100
2018-02-12 20:00:00 1.6 9 Sudoeste 13 Sudoeste 0 -- -- 99
2018-02-12 19:00:00 2.6 6 Oeste 13 Sudoeste 0 -- -- 98
2018-02-12 18:00:00 3.3 5 Sudoeste 12 Sudoeste 0 -- -- 98
2018-02-12 17:00:00 2.6 4 Sudoeste 14 Sudoeste 0 -- -- 100
2018-02-12 16:00:00 1.9 6 Sudoeste 17 Sudoeste 2.2 -- -- 100
2018-02-12 15:00:00 2.3 6 Sudoeste 13 Oeste 4.6 -- -- 98
2018-02-12 14:00:00 3.9 0 Calma 14 Sudoeste 2.8 -- -- 100
2018-02-12 13:00:00 4.1 6 Sudoeste 15 Sudoeste 1.4 -- -- 100
2018-02-12 12:00:00 4.5 7 Sudoeste -- -- -- -- -- 100
2018-02-12 11:00:00 -- 0 Calma 10 Sudoeste 0 -- -- --
2018-02-12 10:00:00 3.5 7 Sudoeste 12 Sudoeste 0 -- -- 99
2018-02-12 09:00:00 3.1 7 Sudoeste 14 Sudoeste 0 -- -- 99
2018-02-12 08:00:00 3.7 9 Sudoeste 15 Sudoeste 0 -- -- 99
2018-02-12 07:00:00 4.5 8 Norte 18 Noroeste 0 -- -- 97
2018-02-12 06:00:00 5 4 Oeste 54 Norte 0 -- -- 98
2018-02-12 05:00:00 6 9 Sudoeste 12 Oeste 0 -- -- 100
2018-02-12 04:00:00 6.2 6 Sudoeste 15 Norte 0 -- -- 98
2018-02-12 03:00:00 6.3 6 Oeste 17 Norte 0 -- -- 97
2018-02-12 02:00:00 6.8 14 Norte 26 Norte 0 -- -- 93
2018-02-12 01:00:00 7.1 16 Norte 26 Norte 0 -- -- 96
2018-02-12 00:00:00 7.5 7 Este 18 Oeste 0 -- -- 97
2018-02-11 23:00:00 7.7 10 Oeste 21 Noroeste 0 -- -- 94
2018-02-11 22:00:00 8 5 Nordeste 26 Este 0 -- -- 93
2018-02-11 21:00:00 8.4 5 Oeste 38 Nordeste 0 -- -- 94
2018-02-11 20:00:00 9 10 Norte 24 Noroeste 0 -- -- 96
2018-02-11 19:00:00 9.3 3 Sur 29 Noroeste 0 -- -- 94
2018-02-11 18:00:00 9.6 5 Oeste 24 Nordeste 0 -- -- 100
2018-02-11 17:00:00 9.4 7 Nordeste 23 Este 0 -- -- 100
2018-02-11 16:00:00 10.2 9 Nordeste 22 Nordeste 0 -- -- 100
2018-02-11 15:00:00 10.3 13 Nordeste 29 Nordeste 0 -- -- 100
2018-02-11 14:00:00 11.3 9 Sudoeste 20 Sudoeste 0 -- -- 100
2018-02-11 13:00:00 11.7 6 Sudoeste 15 Sudoeste 0 -- -- 100
2018-02-11 12:00:00 11.4 8 Sudoeste 14 Sudoeste 0 -- -- 100
2018-02-11 11:00:00 10.5 12 Sudoeste 18 Sudoeste 0 -- -- 100
2018-02-11 10:00:00 9.6 15 Sudoeste 23 Sudoeste 0 -- -- 100
2018-02-11 09:00:00 9.3 15 Sudoeste 29 Sudoeste 0 -- -- 100
2018-02-11 08:00:00 9.1 13 Sudoeste 23 Sudoeste 0 -- -- 100
2018-02-11 07:00:00 8.9 14 Sudoeste 21 Sudoeste 0 -- -- 100
2018-02-11 06:00:00 8.6 13 Sudoeste 18 Sudoeste 0 -- -- 100
2018-02-11 05:00:00 8 9 Sudoeste 21 Sudoeste 0 -- -- 100
2018-02-11 04:00:00 7.7 13 Sudoeste 21 Sudoeste 0 -- -- 100
2018-02-11 03:00:00 7.2 13 Sudoeste 19 Sudoeste 0 -- -- 100
2018-02-11 02:00:00 7.1 9 Sudoeste 16 Sudoeste 0 -- -- 100
2018-02-11 01:00:00 7.1 9 Sudoeste 11 Sudoeste 0 -- -- 100
2018-02-11 00:00:00 7.1 8 Sudoeste 13 Sudoeste 0 -- -- 100
2018-02-10 23:00:00 7.1 10 Sudoeste 14 Sudoeste 0 -- -- 100
2018-02-10 22:00:00 7.2 9 Sudoeste 14 Sudoeste 0 -- -- 100
2018-02-10 21:00:00 7.3 9 Sudoeste 13 Sudoeste 0 -- -- 100
2018-02-10 20:00:00 7.1 5 Sudoeste 9 Sudoeste 0 -- -- 100
2018-02-10 19:00:00 7.3 8 Sudoeste 11 Sudoeste 0 -- -- 99
2018-02-10 18:00:00 7.7 7 Sudoeste 10 Sudoeste 0 -- -- 97
2018-02-10 17:00:00 8.5 6 Oeste 9 Oeste 0 -- -- 93
2018-02-10 16:00:00 8.8 3 Nordeste 8 Este 0 -- -- 88
2018-02-10 15:00:00 8.2 6 Sudeste 17 Sudeste 0 -- -- 88
2018-02-10 14:00:00 8.3 4 Oeste 12 Oeste 0 -- -- 94
2018-02-10 13:00:00 8 5 Oeste 19 Norte 0 -- -- 93
2018-02-10 12:00:00 6.9 12 Sudeste 24 Este 0 -- -- 91
2018-02-10 11:00:00 6.2 11 Nordeste 18 Norte 0 -- -- 94
2018-02-10 10:00:00 5.9 9 Nordeste 20 Norte 0 -- -- 95
2018-02-10 09:00:00 5.1 5 Oeste 36 Norte 0 -- -- 94
2018-02-10 08:00:00 5.6 9 Nordeste 33 Norte 0 -- -- 89
2018-02-10 07:00:00 4.2 8 Oeste 15 Sudoeste 0 -- -- 97
2018-02-10 06:00:00 3.6 9 Oeste 13 Oeste 0 -- -- 100
2018-02-10 05:00:00 3.8 9 Sudoeste 15 Sudoeste 0 -- -- 99
2018-02-10 04:00:00 3.7 10 Sudoeste 14 Oeste 0 -- -- 99
2018-02-10 03:00:00 3.7 5 Sudoeste 12 Oeste 0 -- -- 98
2018-02-10 02:00:00 4 5 Sudoeste 14 Sudoeste 0 -- -- 95
2018-02-10 01:00:00 4.4 5 Noroeste 25 Norte 0 -- -- 92
2018-02-10 00:00:00 5.6 5 Sur 32 Norte 0 -- -- 83
2018-02-09 23:00:00 5.7 5 Sudoeste 20 Norte 0 -- -- 84
2018-02-09 22:00:00 6.6 5 Norte 12 Nordeste 0 -- -- 75
2018-02-09 21:00:00 6.6 3 Norte 14 Sudeste 0 -- -- 78
2018-02-09 20:00:00 7.3 21 Nordeste 52 Nordeste 0 -- -- 70
2018-02-09 19:00:00 8.3 21 Nordeste 38 Nordeste 0 -- -- 70
2018-02-09 18:00:00 8.1 13 Nordeste 49 Nordeste 0 -- -- 80
2018-02-09 17:00:00 8.1 19 Este 54 Nordeste 0.6 -- -- 90
2018-02-09 16:00:00 8.2 30 Nordeste 54 Norte 0.8 -- -- 98
2018-02-09 15:00:00 6.4 6 Sudoeste 12 Sur 0.4 -- -- 100
2018-02-09 14:00:00 5.7 5 Sudoeste 14 Sudoeste 0.8 -- -- 96
2018-02-09 13:00:00 5.8 6 Sudoeste 15 Sudoeste 0 -- -- 97
2018-02-09 12:00:00 4.6 6 Sudoeste 12 Sudoeste 0 -- -- 100
2018-02-09 11:00:00 2.8 8 Sudoeste 13 Sudoeste 0 -- -- 100
2018-02-09 10:00:00 1.1 8 Sudoeste 12 Sur 0.2 -- -- 100
2018-02-09 09:00:00 0.2 5 Sudoeste 8 Sudoeste 0 -- -- 100
2018-02-09 08:00:00 -0.2 0 Calma -- -- 0 -- -- 100
2018-02-09 07:00:00 -0.4 0 Calma -- -- 0 -- -- 100
2018-02-09 06:00:00 -0.6 0 Calma -- -- 0 -- -- 100
2018-02-09 05:00:00 -0.9 0 Calma -- -- 0 -- -- 100
2018-02-09 04:00:00 -0.8 0 Calma 9 Sudoeste 0 -- -- 100
2018-02-09 03:00:00 -0.5 7 Sudoeste 10 Sudoeste 0 -- -- 100
2018-02-09 02:00:00 -0.2 8 Sudoeste 11 Sudoeste 0 -- -- 100
2018-02-09 01:00:00 0.1 6 Sudoeste 11 Sudoeste 0 -- -- 100
2018-02-09 00:00:00 0.1 7 Sudoeste 9 Sudoeste 0 -- -- 100
2018-02-08 23:00:00 0.8 5 Sudoeste 9 Sudoeste 0 -- -- 100
2018-02-08 22:00:00 1.2 6 Sudoeste 12 Sudoeste 0 -- -- 100
2018-02-08 21:00:00 1.6 6 Oeste 8 Oeste 0 -- -- 100
2018-02-08 20:00:00 2.9 4 Sudoeste 11 Sudoeste 0 -- -- 99
2018-02-08 19:00:00 4.2 4 Sudoeste 8 Sudoeste 0 -- -- 98
2018-02-08 18:00:00 5.3 4 Norte 7 Sudoeste 0.2 -- -- 95
2018-02-08 17:00:00 6.1 3 Sudoeste 6 Sudoeste 0 -- -- 92
2018-02-08 16:00:00 5.5 2 Sur 8 Sudeste 0 -- -- 95
2018-02-08 15:00:00 5.1 4 Sur 10 Oeste 0.2 -- -- 97
2018-02-08 14:00:00 4.3 3 Norte 20 Noroeste 0.2 -- -- 97
2018-02-08 13:00:00 4.8 5 Sur 9 Sudoeste 0 -- -- 100
2018-02-08 12:00:00 3.3 3 Sudoeste 7 Sudoeste 0 -- -- 100
2018-02-08 11:00:00 1.9 4 Sudoeste 9 Sur 0.2 -- -- 100
2018-02-08 10:00:00 1.3 4 Sur 8 Sudeste 3.6 -- -- 100
2018-02-08 09:00:00 1.9 4 Sur 14 Sudoeste 1.6 -- -- 100
2018-02-08 08:00:00 1.9 3 Sudoeste 13 Oeste 1.6 -- -- 100
2018-02-08 07:00:00 1.5 4 Sur 16 Sudoeste 0.4 -- -- 100
2018-02-08 06:00:00 1.2 10 Sudoeste 14 Sudoeste 0.2 -- -- 100
2018-02-08 05:00:00 1.1 5 Oeste 9 Sudoeste 0.4 -- -- 100
2018-02-08 04:00:00 1.6 6 Sudoeste 15 Oeste 1 -- -- 100
2018-02-08 03:00:00 1.5 6 Sudoeste 17 Sudoeste 0 -- -- 100
2018-02-08 02:00:00 1.8 6 Noroeste 16 Sudoeste 2.2 -- -- 100
2018-02-08 01:00:00 1.7 10 Oeste 14 Sudoeste 2.4 -- -- 100
2018-02-08 00:00:00 2 7 Sudeste 19 Norte 2 -- -- 100
2018-02-07 23:00:00 0.9 6 Sudoeste 10 Oeste 0 -- -- 100
2018-02-07 22:00:00 1.2 4 Oeste 9 Sudoeste 0 -- -- 100
2018-02-07 21:00:00 1 4 Sudoeste 7 Sudoeste 0 -- -- 100
2018-02-07 20:00:00 1.4 3 Sur 11 Sudoeste 0 -- -- 99
2018-02-07 19:00:00 2 8 Sudoeste 13 Oeste 0 -- -- 98
2018-02-07 18:00:00 3.2 9 Sudoeste 17 Oeste 0 -- -- 96
2018-02-07 17:00:00 3.4 7 Nordeste 30 Nordeste 1.6 -- -- 95
2018-02-07 16:00:00 3.8 7 Nordeste 15 Sudeste 2.8 -- -- 94
2018-02-07 15:00:00 5.5 5 Sudoeste 18 Norte 0.4 -- -- 97
2018-02-07 14:00:00 5 15 Nordeste 37 Nordeste 0.6 -- -- 88
2018-02-07 13:00:00 6.4 5 Oeste 12 Oeste 0 -- -- 92
2018-02-07 12:00:00 4.2 4 Sudoeste 9 Sudoeste 0 -- -- 100
2018-02-07 11:00:00 2.7 5 Sudoeste 10 Noroeste 2 -- -- 100
2018-02-07 10:00:00 1.8 2 Noroeste 10 Sudoeste 0.6 -- -- 100
2018-02-07 09:00:00 1.2 4 Sudoeste 8 Sudoeste 0.6 -- -- 100
2018-02-07 08:00:00 1.1 6 Sudoeste 10 Oeste 0.4 -- -- 100
2018-02-07 07:00:00 0.9 0 Calma 12 Oeste 1.6 -- -- 100
2018-02-07 06:00:00 1 3 Sur 9 Sudoeste 0.8 -- -- 100
2018-02-07 05:00:00 1.1 3 Oeste 14 Oeste 2.8 -- -- 100
2018-02-07 04:00:00 1.6 6 Sudoeste 12 Sudoeste 0 -- -- 100
2018-02-07 03:00:00 1.4 3 Sudoeste 12 Oeste 0.6 -- -- 100
2018-02-07 02:00:00 1.8 4 Oeste 9 Sur 0 -- -- 100
2018-02-07 01:00:00 1.8 5 Sudoeste 13 Oeste 0 -- -- 100
2018-02-07 00:00:00 2.4 8 Oeste 12 Sudoeste 1.2 -- -- 99
2018-02-06 23:00:00 2.5 6 Sudoeste 27 Sudeste 1 -- -- 98
2018-02-06 22:00:00 3.1 6 Sudoeste 12 Oeste 1 -- -- 97
2018-02-06 21:00:00 3.8 6 Sudoeste 15 Sudoeste 0 -- -- 96
2018-02-06 20:00:00 4.3 7 Oeste 19 Sudeste 0 -- -- 91
2018-02-06 19:00:00 4.5 10 Oeste 17 Este 0 -- -- 93
2018-02-06 18:00:00 5.8 6 Este 21 Este 0 -- -- 76
2018-02-06 17:00:00 6 11 Este 32 Nordeste 0 -- -- 81
2018-02-06 16:00:00 7.4 17 Nordeste 30 Nordeste 0 -- -- 68
2018-02-06 15:00:00 7.1 16 Nordeste 32 Este 0 -- -- 78
2018-02-06 14:00:00 6.4 5 Nordeste 28 Nordeste 0.2 -- -- 82
2018-02-06 13:00:00 7.2 9 Nordeste 21 Nordeste 0 -- -- 69
2018-02-06 12:00:00 6.7 5 Este 23 Nordeste 0 -- -- 78
2018-02-06 11:00:00 5.4 5 Oeste 11 Oeste 0 -- -- 83
2018-02-06 10:00:00 4.4 8 Oeste 12 Oeste 0 -- -- 88
2018-02-06 09:00:00 4.3 4 Este 24 Este 0 -- -- 77
2018-02-06 08:00:00 3.8 12 Este 26 Nordeste 0 -- -- 78
2018-02-06 07:00:00 2.5 9 Oeste 13 Oeste 0 -- -- 95
2018-02-06 06:00:00 3.9 4 Nordeste 15 Norte 0 -- -- 78
2018-02-06 05:00:00 4.5 4 Nordeste 22 Nordeste 0 -- -- 72
2018-02-06 04:00:00 4.9 6 Nordeste 30 Nordeste 0 -- -- 77
2018-02-06 03:00:00 5 6 Nordeste 29 Nordeste 0 -- -- 78
2018-02-06 02:00:00 5.2 10 Nordeste 31 Nordeste 0 -- -- 81
2018-02-06 01:00:00 5.2 15 Este 35 Este 0.4 -- -- 87
2018-02-06 00:00:00 5.2 12 Este 32 Nordeste 1 -- -- 91
2018-02-05 23:00:00 5.6 17 Nordeste 31 Nordeste 0.2 -- -- 91
2018-02-05 22:00:00 5.6 13 Este 38 Nordeste 1.6 -- -- 92
2018-02-05 21:00:00 5.7 15 Nordeste 35 Nordeste 1 -- -- 93
2018-02-05 20:00:00 6 15 Nordeste 33 Nordeste 0.8 -- -- 94
2018-02-05 19:00:00 5.7 15 Nordeste 32 Nordeste 1.8 -- -- 96
2018-02-05 18:00:00 5.7 17 Nordeste 33 Nordeste 1 -- -- 94
2018-02-05 17:00:00 5.8 12 Nordeste 29 Este 0.6 -- -- 93
2018-02-05 16:00:00 6 10 Nordeste 29 Nordeste 0 -- -- 92
2018-02-05 15:00:00 5.6 13 Este 30 Este 1.6 -- -- 93
2018-02-05 14:00:00 5.6 14 Este 31 Nordeste 1.2 -- -- 93
2018-02-05 13:00:00 6.5 17 Este 33 Este 0 -- -- 85
2018-02-05 12:00:00 6.4 15 Nordeste 30 Nordeste 0.2 -- -- 88
2018-02-05 11:00:00 6.4 10 Este 27 Nordeste 0.6 -- -- 90
2018-02-05 10:00:00 5.9 19 Este 31 Nordeste 0.4 -- -- 90
2018-02-05 09:00:00 6.2 15 Este 27 Este 0.4 -- -- 91
2018-02-05 08:00:00 6.1 10 Este 26 Este 0.8 -- -- 94
2018-02-05 07:00:00 6.4 10 Este 24 Sudeste 0.6 -- -- 94
2018-02-05 06:00:00 6.4 8 Este 23 Este 0.8 -- -- 94
2018-02-05 05:00:00 6.4 6 Este 24 Este 0.2 -- -- 94
2018-02-05 04:00:00 5.8 7 Este 29 Este 1 -- -- 100
2018-02-05 03:00:00 4.4 4 Norte 9 Noroeste 0.8 -- -- 100
2018-02-05 02:00:00 4.3 5 Norte 12 Noroeste 0.2 -- -- 100
2018-02-05 01:00:00 4 4 Oeste 7 Sur 0.8 -- -- 100
2018-02-05 00:00:00 4 2 Sur 9 Oeste 1.4 -- -- 100
2018-02-04 23:00:00 3.5 2 Sur 7 Sudoeste 0 -- -- 100
2018-02-04 22:00:00 3.8 6 Sur 11 Oeste 0.2 -- -- 100
2018-02-04 21:00:00 4.1 0 Calma 6 Sur 0 -- -- 100
2018-02-04 20:00:00 4.4 5 Sudoeste 9 Sudoeste 0 -- -- 98
2018-02-04 19:00:00 5.5 6 Sudoeste 10 Sudoeste 0 -- -- 97
2018-02-04 18:00:00 6.5 6 Sur 12 Oeste 0.2 -- -- 96
2018-02-04 17:00:00 6.8 3 Este 21 Norte 0 -- -- 91
2018-02-04 16:00:00 7.8 16 Norte 32 Nordeste 0.8 -- -- 87
2018-02-04 15:00:00 9.6 6 Norte 19 Norte 0 -- -- 77
2018-02-04 14:00:00 8.7 5 Norte 20 Noroeste 0 -- -- 85
2018-02-04 13:00:00 8.6 8 Oeste 18 Oeste 0 -- -- 89
2018-02-04 12:00:00 7.7 8 Sudoeste 15 Sur 0 -- -- 96
2018-02-04 11:00:00 5.7 8 Sudoeste 12 Sudoeste 0 -- -- 100
2018-02-04 10:00:00 4.1 5 Sudoeste 8 Sudoeste 0.6 -- -- 100
2018-02-04 09:00:00 3.6 3 Sudoeste 12 Sudoeste 0 -- -- 100
2018-02-04 08:00:00 3.7 4 Sudoeste 11 Sudoeste 0.2 -- -- 99
2018-02-04 07:00:00 3.9 2 Noroeste 9 Oeste 0.2 -- -- 99
2018-02-04 06:00:00 4.1 5 Sudoeste 22 Noroeste 0.6 -- -- 99
2018-02-04 05:00:00 4.3 12 Oeste 21 Sudoeste 1.6 -- -- 98
2018-02-04 04:00:00 4 0 Calma 19 Noroeste 0.4 -- -- 99
2018-02-04 03:00:00 4.3 8 Sudoeste 16 Sudoeste 0.8 -- -- 99
2018-02-04 02:00:00 4.6 12 Sudoeste 18 Sudoeste 2.8 -- -- 97
2018-02-04 01:00:00 5.3 7 Sudoeste 25 Oeste 1.4 -- -- 98
2018-02-04 00:00:00 5.7 8 Sudoeste 19 Sudoeste 1 -- -- 98
2018-02-03 23:00:00 6.2 4 Norte 32 Noroeste 2.8 -- -- 97
2018-02-03 22:00:00 6.4 7 Sur 20 Sudoeste 2 -- -- 99
2018-02-03 21:00:00 6.4 15 Sudoeste 22 Oeste 1 -- -- 98
2018-02-03 20:00:00 6.8 12 Oeste 35 Nordeste 3.2 -- -- 95
2018-02-03 19:00:00 7.7 5 Oeste 48 Norte 2.4 -- -- 90
2018-02-03 18:00:00 8.9 11 Norte 54 Norte 2.4 -- -- 88
2018-02-03 17:00:00 9.4 19 Norte 42 Norte 1.4 -- -- 92
2018-02-03 16:00:00 9.6 26 Norte 47 Nordeste 1.8 -- -- 89
2018-02-03 15:00:00 7.1 11 Sudoeste 24 Oeste 4.2 -- -- 99
2018-02-03 14:00:00 7.4 10 Sudoeste 17 Sudoeste 0.4 -- -- 99
2018-02-03 13:00:00 6.9 12 Sudoeste 20 Sudoeste 0.4 -- -- 100
2018-02-03 12:00:00 6.3 10 Sudoeste 18 Sudoeste 0.6 -- -- 100
2018-02-03 11:00:00 5.9 7 Sudoeste 14 Sudoeste 0.8 -- -- 100
2018-02-03 10:00:00 5.6 9 Oeste 31 Oeste 1.8 -- -- 100
2018-02-03 09:00:00 4.8 10 Sudoeste 17 Sudoeste 0.2 -- -- 100
2018-02-03 08:00:00 4.9 10 Sudoeste 24 Noroeste 2.6 -- -- 100
2018-02-03 07:00:00 4.2 5 Sudoeste 15 Sudoeste 1.4 -- -- 100
2018-02-03 06:00:00 4.6 8 Sudoeste 15 Oeste 0.6 -- -- 100
2018-02-03 05:00:00 4.1 9 Sudoeste 15 Sudoeste 0.4 -- -- 100
2018-02-03 04:00:00 3.9 10 Sudoeste 13 Sudoeste 1.8 -- -- 100
2018-02-03 03:00:00 3.7 7 Sur 17 Sudoeste 0.2 -- -- 100
2018-02-03 02:00:00 3.7 10 Sudoeste 21 Norte 2.6 -- -- 100
2018-02-03 01:00:00 3.3 8 Sudoeste 25 Noroeste 1.8 -- -- 99
2018-02-03 00:00:00 3.5 5 Sur 18 Sudoeste 1.6 -- -- 99
2018-02-02 23:00:00 3.6 10 Sudoeste 15 Sudoeste 0 -- -- 100
2018-02-02 22:00:00 4 8 Sudoeste 25 Oeste 0 -- -- 98
2018-02-02 21:00:00 4.4 6 Sudoeste 13 Sudoeste 0.2 -- -- 99
2018-02-02 20:00:00 4.9 5 Noroeste 20 Nordeste 1.2 -- -- 99
2018-02-02 19:00:00 4.7 9 Sudoeste 15 Sudoeste 0.2 -- -- 98
2018-02-02 18:00:00 5.3 5 Sur 16 Este 0.4 -- -- 97
2018-02-02 17:00:00 5.7 4 Este 34 Nordeste 2.2 -- -- 92
2018-02-02 16:00:00 8.7 15 Norte 27 Norte 0 -- -- 74
2018-02-02 15:00:00 7.8 7 Nordeste 22 Norte 0 -- -- 80
2018-02-02 14:00:00 7.2 5 Nordeste 26 Noroeste 0 -- -- 88
2018-02-02 13:00:00 6.1 8 Noroeste 17 Noroeste 0 -- -- 91
2018-02-02 12:00:00 5.2 4 Sudoeste 10 Sudoeste 0 -- -- 100
2018-02-02 11:00:00 3.7 6 Sur 13 Sudoeste 0 -- -- 100
2018-02-02 10:00:00 3.2 5 Sudoeste 9 Oeste 1.2 -- -- 100
2018-02-02 09:00:00 2.8 4 Oeste 15 Oeste 1.2 -- -- 100
2018-02-02 08:00:00 2.7 2 Sudeste 11 Sudoeste 0 -- -- 100
2018-02-02 07:00:00 2.8 10 Sudoeste 17 Oeste 0.2 -- -- 100
2018-02-02 06:00:00 3.3 7 Sudoeste 15 Oeste 0.4 -- -- 100
2018-02-02 05:00:00 3.4 7 Oeste 12 Sudoeste 2 -- -- 100
2018-02-02 04:00:00 3.7 5 Noroeste 42 Este 1.8 -- -- 99
2018-02-02 03:00:00 3.8 5 Sudeste 14 Sudoeste 0.2 -- -- 100
2018-02-02 02:00:00 3.9 8 Sudoeste 17 Nordeste 2 -- -- 100
2018-02-02 01:00:00 3.7 9 Sudoeste 17 Oeste 3.2 -- -- 100
2018-02-02 00:00:00 4.3 12 Oeste 21 Noroeste 2 -- -- 100
2018-02-01 23:00:00 4.3 4 Sur 10 Sudoeste 0.4 -- -- 100
2018-02-01 22:00:00 4.3 5 Sur 11 Sur 1.2 -- -- 100
2018-02-01 21:00:00 4 5 Sudoeste 15 Sudoeste 0.6 -- -- 100
2018-02-01 20:00:00 4.2 6 Sudoeste 18 Sudoeste 1.4 -- -- 99
2018-02-01 19:00:00 4.3 9 Sudoeste 15 Sudoeste 0 -- -- 98
2018-02-01 18:00:00 5.2 10 Noroeste 16 Oeste 0.8 -- -- 98
2018-02-01 17:00:00 4.8 6 Sudoeste 14 Sudoeste 0 -- -- 99
2018-02-01 16:00:00 4.6 8 Sudoeste 40 Norte 4.2 -- -- 96
2018-02-01 15:00:00 6.5 6 Sudoeste 24 Noroeste 2 -- -- 95
2018-02-01 14:00:00 7.3 11 Oeste 29 Norte 0.2 -- -- 92
2018-02-01 13:00:00 6.9 20 Norte 46 Norte 0.4 -- -- 90
2018-02-01 12:00:00 6.9 17 Norte 46 Este 2.8 -- -- 98
2018-02-01 11:00:00 7 8 Sudeste 18 Este 1.8 -- -- 97
2018-02-01 10:00:00 7 6 Noroeste 29 Oeste 5 -- -- 91
2018-02-01 09:00:00 7.6 10 Sudoeste 29 Noroeste 1.4 -- -- 96
2018-02-01 08:00:00 8 8 Oeste 19 Noroeste 1 -- -- 95
2018-02-01 07:00:00 8.3 11 Norte 24 Norte 0.6 -- -- 93
2018-02-01 06:00:00 8.6 7 Noroeste 36 Norte 0.8 -- -- 93
2018-02-01 05:00:00 8.6 10 Nordeste 39 Norte 4.8 -- -- 99
2018-02-01 04:00:00 9.4 6 Norte 20 Sudoeste 2 -- -- 100
2018-02-01 03:00:00 8.9 8 Sudoeste 17 Sudoeste 1 -- -- 100
2018-02-01 02:00:00 8.3 10 Sudoeste 15 Sudoeste 0.4 -- -- 100
2018-02-01 01:00:00 8.2 9 Sudoeste 15 Sur 0.4 -- -- 98
2018-02-01 00:00:00 8.7 8 Sudoeste 17 Sur 0 -- -- 93
2018-01-31 23:00:00 9 6 Sur 17 Sudoeste 0 -- -- 89
2018-01-31 22:00:00 9.2 6 Sudoeste 11 Sudoeste 0 -- -- 86
2018-01-31 21:00:00 9.1 5 Sur 13 Sudoeste 0 -- -- 88
2018-01-31 20:00:00 9.5 5 Sudoeste 12 Oeste 0 -- -- 86
2018-01-31 19:00:00 9.2 2 Nordeste 21 Noroeste 0 -- -- 86
2018-01-31 18:00:00 10.1 6 Noroeste 18 Noroeste 0 -- -- 82
2018-01-31 17:00:00 12 10 Norte 22 Norte 0 -- -- 78
2018-01-31 16:00:00 13 14 Norte 28 Norte 0 -- -- 72
2018-01-31 15:00:00 13.8 5 Oeste 13 Sudoeste 0 -- -- 70
2018-01-31 14:00:00 11.9 5 Sudeste 12 Sudeste 0 -- -- 75
2018-01-31 13:00:00 10.6 4 Sudoeste 18 Sudoeste 0 -- -- 79
2018-01-31 12:00:00 8.5 14 Sudoeste 22 Sudoeste 0 -- -- 87
2018-01-31 11:00:00 7.9 6 Sudoeste 12 Oeste 0 -- -- 90
2018-01-31 10:00:00 6.3 6 Sudoeste 12 Sur 0 -- -- 99
2018-01-31 09:00:00 5.2 2 Oeste 15 Sudoeste 0 -- -- 99
2018-01-31 08:00:00 5.3 8 Sudoeste 14 Sudoeste 0 -- -- 99
2018-01-31 07:00:00 5.7 8 Sudoeste 12 Sudoeste 0 -- -- 100
2018-01-31 06:00:00 5.9 5 Oeste 8 Oeste 0 -- -- 100
2018-01-31 05:00:00 5.9 2 Sudeste 11 Sudoeste 0 -- -- 100
2018-01-31 04:00:00 6 5 Sur 10 Sudoeste 0 -- -- 99
2018-01-31 03:00:00 6.1 0 Calma 6 Sudoeste 0 -- -- 99
2018-01-31 02:00:00 6.2 2 Noroeste 9 Oeste 0 -- -- 99
2018-01-31 01:00:00 6.3 5 Oeste 9 Oeste 0 -- -- 98
2018-01-31 00:00:00 6.5 3 Oeste 9 Sudoeste 0 -- -- 98
2018-01-30 23:00:00 6.4 5 Sudoeste 8 Sudoeste 0 -- -- 98
2018-01-30 22:00:00 6.2 3 Sudoeste 6 Sudoeste 0 -- -- 97
2018-01-30 21:00:00 6.6 0 Calma 11 Nordeste 0 -- -- 96
2018-01-30 20:00:00 6.7 5 Nordeste 13 Nordeste 0 -- -- 95
2018-01-30 19:00:00 7.1 8 Nordeste 13 Nordeste 0 -- -- 93
2018-01-30 18:00:00 8.3 7 Nordeste 16 Norte 0 -- -- 87
2018-01-30 17:00:00 10.9 5 Norte 16 Norte 0 -- -- 79
2018-01-30 16:00:00 11.1 12 Norte 17 Nordeste 0 -- -- 77
2018-01-30 15:00:00 11.5 12 Norte 20 Norte 0 -- -- 75
2018-01-30 14:00:00 11.3 3 Norte 13 Este 0 -- -- 74
2018-01-30 13:00:00 10.1 6 Este 11 Sudeste 0 -- -- 78
2018-01-30 12:00:00 8.4 2 Norte 5 Sudoeste 0 -- -- 94
2018-01-30 11:00:00 6.6 2 Oeste 7 Sur 0 -- -- 99
2018-01-30 10:00:00 5.6 4 Sur 8 Sudoeste 0 -- -- 100
2018-01-30 09:00:00 5.5 4 Sudoeste 6 Oeste 0 -- -- 99
2018-01-30 08:00:00 6 3 Sudoeste 6 Sudoeste 0 -- -- 99
2018-01-30 07:00:00 6.6 3 Sur 9 Sudoeste 0 -- -- 99
2018-01-30 06:00:00 6.9 4 Sudoeste 6 Oeste 0 -- -- 100
2018-01-30 05:00:00 6.7 0 Calma 8 Sur 0 -- -- 100
2018-01-30 04:00:00 6.7 5 Sudoeste 10 Sudoeste 0 -- -- 100
2018-01-30 03:00:00 6.4 0 Calma 6 Sudoeste 0 -- -- 100
2018-01-30 02:00:00 6.7 0 Calma 3 Norte 0 -- -- 99
2018-01-30 01:00:00 6.9 0 Calma 3 Nordeste 0 -- -- 97
2018-01-30 00:00:00 7.9 0 Calma 2 Norte 0 -- -- 98
2018-01-29 23:00:00 8.5 0 Calma 3 Oeste 0 -- -- 96
2018-01-29 22:00:00 8.8 3 Oeste 5 Oeste 0 -- -- 96
2018-01-29 21:00:00 9 0 Calma 6 Sudoeste 0 -- -- 95
2018-01-29 20:00:00 9.5 2 Norte 8 Nordeste 0 -- -- 94
2018-01-29 19:00:00 9.4 3 Norte 14 Norte 0 -- -- 94
2018-01-29 18:00:00 9.6 10 Norte 15 Norte 0 -- -- 91
2018-01-29 17:00:00 11.5 12 Norte 18 Norte 0 -- -- 85
2018-01-29 16:00:00 12.5 14 Norte 26 Norte 0 -- -- 82
2018-01-29 15:00:00 13.3 12 Norte 22 Norte 0 -- -- 77
2018-01-29 14:00:00 13.8 6 Nordeste 11 Norte 0 -- -- 75
2018-01-29 13:00:00 12.2 2 Norte 5 Norte 0 -- -- 79
2018-01-29 12:00:00 10.1 0 Calma 5 Sudeste 0 -- -- 89
2018-01-29 11:00:00 7.1 3 Sudoeste 5 Sur 0 -- -- 100
2018-01-29 10:00:00 3.8 3 Sudoeste 10 Sudoeste 0 -- -- 100
2018-01-29 09:00:00 1.7 5 Sudoeste 11 Sudoeste 0 -- -- 100
2018-01-29 08:00:00 1.4 5 Sudoeste 8 Sudoeste 0 -- -- 100
2018-01-29 07:00:00 1.3 6 Sudoeste 12 Sudoeste 0 -- -- 100
2018-01-29 06:00:00 1.2 9 Sudoeste 13 Sudoeste 0 -- -- 100
2018-01-29 05:00:00 0.9 9 Sudoeste 13 Sudoeste 0 -- -- 100
2018-01-29 04:00:00 1.2 7 Sudoeste 10 Sudoeste 0 -- -- 100
2018-01-29 03:00:00 1.1 9 Sudoeste 10 Sudoeste 0 -- -- 100
2018-01-29 02:00:00 1.8 4 Sudoeste 8 Sudoeste 0 -- -- 100
2018-01-29 01:00:00 2.2 5 Sudoeste 10 Sudoeste 0 -- -- 100
2018-01-29 00:00:00 2.7 6 Sudoeste 10 Sudoeste 0 -- -- 99
2018-01-28 23:00:00 3.1 7 Sudoeste 9 Sudoeste 0 -- -- 99
2018-01-28 22:00:00 4.2 2 Sur 9 Sudoeste 0 -- -- 97
2018-01-28 21:00:00 4.4 8 Sudoeste 10 Sudoeste 0 -- -- 96
2018-01-28 20:00:00 6.2 2 Nordeste 6 Nordeste 0 -- -- 90
2018-01-28 19:00:00 7.3 4 Nordeste 14 Nordeste 0 -- -- 85
2018-01-28 18:00:00 8.7 5 Norte 16 Este 0 -- -- 80
2018-01-28 17:00:00 9.9 13 Este 26 Este 0 -- -- 75
2018-01-28 16:00:00 11.1 12 Este 21 Este 0 -- -- 71
2018-01-28 15:00:00 11.3 14 Este 21 Este 0 -- -- 70
2018-01-28 14:00:00 11.6 11 Este 18 Nordeste 0 -- -- 69
2018-01-28 13:00:00 11.1 4 Nordeste 9 Nordeste 0 -- -- 72
2018-01-28 12:00:00 9.1 0 Calma 9 Sur 0 -- -- 87
2018-01-28 11:00:00 5.9 6 Sudoeste 9 Sudoeste 0 -- -- 100
2018-01-28 10:00:00 3.3 5 Sudoeste 14 Sudoeste 0.2 -- -- 100
2018-01-28 09:00:00 1.1 6 Sudoeste 10 Sudoeste 0 -- -- 100
2018-01-28 08:00:00 1.2 7 Sudoeste 10 Sudoeste 0 -- -- 100
2018-01-28 07:00:00 1.4 8 Sudoeste 11 Sudoeste 0 -- -- 100
2018-01-28 06:00:00 1.9 5 Sudoeste 8 Sudoeste 0 -- -- 100
2018-01-28 05:00:00 1.9 3 Sur 12 Sudoeste 0 -- -- 100
2018-01-28 04:00:00 2.2 6 Sudoeste 10 Sudoeste 0 -- -- 100
2018-01-28 03:00:00 2.5 8 Sudoeste 10 Sudoeste 0 -- -- 99
2018-01-28 02:00:00 3.4 4 Sudoeste 8 Sudoeste 0 -- -- 100
2018-01-28 01:00:00 4 5 Sudoeste 10 Sudoeste 0 -- -- 99
2018-01-28 00:00:00 4.2 7 Sudoeste 10 Sudoeste 0 -- -- 100
2018-01-27 23:00:00 4.2 6 Sudoeste 8 Sudoeste 0 -- -- 99
2018-01-27 22:00:00 4.3 0 Calma 10 Sudoeste 0 -- -- 98
2018-01-27 21:00:00 5.1 3 Sudoeste 9 Sudoeste 0 -- -- 96
2018-01-27 20:00:00 6.4 4 Sur 9 Oeste 0 -- -- 93
2018-01-27 19:00:00 8.1 0 Calma 6 Nordeste 0 -- -- 80
2018-01-27 18:00:00 9.4 5 Norte 17 Este 0 -- -- 77
2018-01-27 17:00:00 10.9 12 Este 23 Norte 0 -- -- 69
2018-01-27 16:00:00 11.4 8 Nordeste 24 Nordeste 0 -- -- 65
2018-01-27 15:00:00 11.8 16 Nordeste 33 Nordeste 0 -- -- 62
2018-01-27 14:00:00 11.5 14 Nordeste 27 Nordeste 0 -- -- 67
2018-01-27 13:00:00 10.8 12 Nordeste 30 Nordeste 0 -- -- 72
2018-01-27 12:00:00 10.3 17 Nordeste 28 Nordeste 0 -- -- 69
2018-01-27 11:00:00 9 11 Este 22 Nordeste 0 -- -- 85
2018-01-27 10:00:00 7.2 10 Oeste 15 Oeste 0.2 -- -- 99
2018-01-27 09:00:00 6.6 7 Oeste 14 Oeste 0 -- -- 99
2018-01-27 08:00:00 6.9 8 Oeste 13 Este 0.2 -- -- 95
2018-01-27 07:00:00 7.5 8 Nordeste 17 Nordeste 0.8 -- -- 94
2018-01-27 06:00:00 7.6 5 Nordeste 20 Nordeste 0.2 -- -- 92
2018-01-27 05:00:00 7.3 8 Nordeste 24 Noroeste 0 -- -- 94
2018-01-27 04:00:00 7.9 18 Nordeste 35 Nordeste 1.4 -- -- 88
2018-01-27 03:00:00 9.2 12 Este 36 Nordeste 0 -- -- 83
2018-01-27 02:00:00 9.7 15 Nordeste 35 Nordeste 0 -- -- 80
2018-01-27 01:00:00 9.5 9 Nordeste 32 Norte 0 -- -- 80
2018-01-27 00:00:00 9.1 14 Nordeste 31 Nordeste 0 -- -- 86
2018-01-26 23:00:00 8.3 23 Nordeste 38 Norte 1.6 -- -- 88
2018-01-26 22:00:00 8.2 14 Nordeste 45 Este 1.6 -- -- 89
2018-01-26 21:00:00 9.5 16 Nordeste 28 Nordeste 0 -- -- 79
2018-01-26 20:00:00 9.1 12 Nordeste 32 Nordeste 0 -- -- 83
2018-01-26 19:00:00 8 8 Este 41 Norte 2 -- -- 92
2018-01-26 18:00:00 8.3 2 Sur 39 Norte 0 -- -- 85
2018-01-26 17:00:00 9.8 16 Nordeste 30 Nordeste 0.2 -- -- 85
2018-01-26 16:00:00 9.4 5 Norte 35 Norte 0.2 -- -- 91
2018-01-26 15:00:00 8.3 3 Norte 28 Nordeste 1.6 -- -- 92
2018-01-26 14:00:00 8.9 4 Sudoeste 14 Oeste 0 -- -- 97
2018-01-26 13:00:00 8.1 5 Oeste 21 Este 1.8 -- -- 100
2018-01-26 12:00:00 7 10 Oeste 19 Sudoeste 0.6 -- -- 99
2018-01-26 11:00:00 7 5 Sudoeste 12 Sudoeste 2.2 -- -- 98
2018-01-26 10:00:00 7.4 10 Noroeste 22 Noroeste 0.2 -- -- 95
2018-01-26 09:00:00 7.3 10 Nordeste 40 Noroeste 0.8 -- -- 93
2018-01-26 08:00:00 7.3 12 Noroeste 28 Norte 0.6 -- -- 98
2018-01-26 07:00:00 7.2 6 Noroeste 34 Noroeste 1 -- -- 95
2018-01-26 06:00:00 7.6 15 Noroeste 34 Noroeste 0.6 -- -- 91
2018-01-26 05:00:00 6.7 10 Noroeste 40 Noroeste 2.4 -- -- 91
2018-01-26 04:00:00 8.1 15 Noroeste 30 Norte 0.2 -- -- 90
2018-01-26 03:00:00 7.2 10 Oeste 20 Noroeste 1.2 -- -- 97
2018-01-26 02:00:00 6.9 9 Sudoeste 16 Oeste 0 -- -- 98
2018-01-26 01:00:00 7.1 6 Oeste 18 Sudoeste 0.2 -- -- 98
2018-01-26 00:00:00 7.1 7 Sudoeste 20 Noroeste 0.2 -- -- 96
2018-01-25 23:00:00 6.5 9 Sudoeste 15 Sudoeste 0 -- -- 99
2018-01-25 22:00:00 6.7 7 Sudoeste 14 Oeste 0.2 -- -- 98
2018-01-25 21:00:00 7 8 Sudoeste 14 Sudoeste 1.8 -- -- 98
2018-01-25 20:00:00 7.2 6 Sudoeste 23 Oeste 0.4 -- -- 97
2018-01-25 19:00:00 7.5 13 Oeste 23 Noroeste 0.6 -- -- 92
2018-01-25 18:00:00 8.3 6 Norte 24 Oeste 1.4 -- -- 90
2018-01-25 17:00:00 8.5 6 Noroeste 19 Oeste 1 -- -- 94
2018-01-25 16:00:00 9.1 5 Norte 17 Norte 1 -- -- 91
2018-01-25 15:00:00 9.4 7 Oeste 18 Oeste 0.6 -- -- 98
2018-01-25 14:00:00 9.3 7 Sudoeste 21 Noroeste 1 -- -- 97
2018-01-25 13:00:00 9.6 11 Norte 36 Norte 1 -- -- 93
2018-01-25 12:00:00 10.3 10 Noroeste 19 Noroeste 0.2 -- -- 92
2018-01-25 11:00:00 9.9 12 Oeste 18 Oeste 1.6 -- -- 97
2018-01-25 10:00:00 9.5 8 Sudoeste 13 Oeste 4 -- -- 97
2018-01-25 09:00:00 10.4 8 Oeste 19 Oeste 1.8 -- -- 89
2018-01-25 08:00:00 11.1 8 Sudoeste 14 Oeste 0 -- -- 77
2018-01-25 07:00:00 10.9 4 Sudoeste 19 Oeste 0 -- -- 76
2018-01-25 06:00:00 11.1 6 Sur 13 Sur 0 -- -- 73
2018-01-25 05:00:00 11.2 5 Sur 15 Sudoeste 0 -- -- 70
2018-01-25 04:00:00 11.4 8 Sudoeste 19 Oeste 0 -- -- 69
2018-01-25 03:00:00 11.5 6 Sur 23 Sudoeste 0 -- -- 68
2018-01-25 02:00:00 11.4 11 Sudoeste 22 Sudoeste 0 -- -- 68
2018-01-25 01:00:00 10 7 Sudoeste 17 Oeste 0 -- -- 72
2018-01-25 00:00:00 9.9 8 Sudoeste 16 Sudoeste 0 -- -- 72
2018-01-24 23:00:00 9.4 10 Sudoeste 17 Sudoeste 0 -- -- 72
2018-01-24 22:00:00 9.3 6 Sur 12 Sudoeste 0 -- -- 72
2018-01-24 21:00:00 10.3 8 Sudoeste 13 Sudoeste 0 -- -- 69
2018-01-24 20:00:00 9.7 9 Sur 20 Oeste 0 -- -- 78
2018-01-24 19:00:00 11.7 7 Sudoeste 13 Oeste 0 -- -- 70
2018-01-24 18:00:00 13.9 7 Sudoeste 12 Oeste 0 -- -- 60
2018-01-24 17:00:00 15.3 8 Oeste 23 Oeste 0 -- -- 56
2018-01-24 16:00:00 17.6 17 Oeste 27 Oeste 0 -- -- 50
2018-01-24 15:00:00 17.6 15 Oeste 27 Oeste 0 -- -- 55
2018-01-24 14:00:00 16.4 19 Oeste 34 Sudoeste 0.2 -- -- 62
2018-01-24 13:00:00 16.2 8 Oeste 18 Oeste 0 -- -- 71
2018-01-24 12:00:00 14.3 12 Oeste 22 Oeste 0 -- -- 72
2018-01-24 11:00:00 12.8 8 Sudoeste 18 Oeste 0 -- -- 80
2018-01-24 10:00:00 9.6 3 Sudeste 10 Sudoeste 0 -- -- 91
2018-01-24 09:00:00 8.8 5 Sur 14 Sur 0 -- -- 91
2018-01-24 08:00:00 7.6 9 Sur 15 Sur 0 -- -- 100
2018-01-24 07:00:00 6.7 8 Sudoeste 15 Oeste 0 -- -- 100
2018-01-24 06:00:00 5.3 13 Oeste 16 Oeste 0 -- -- 100
2018-01-24 05:00:00 5.5 9 Sudoeste 14 Oeste 0 -- -- 100
2018-01-24 04:00:00 5.6 5 Sudoeste 10 Oeste 0 -- -- 100
2018-01-24 03:00:00 6.3 5 Oeste 8 Oeste 0 -- -- 100
2018-01-24 02:00:00 7.1 3 Sudoeste 8 Sudoeste 0 -- -- 100
2018-01-24 01:00:00 8 5 Sudoeste 9 Oeste 0 -- -- 100
2018-01-24 00:00:00 8.5 3 Sudoeste 10 Sudoeste 0 -- -- 100
2018-01-23 23:00:00 8.8 6 Sudoeste 9 Oeste 0 -- -- 100
2018-01-23 22:00:00 10.3 0 Calma 5 Oeste 0 -- -- 100
2018-01-23 21:00:00 10.7 4 Oeste 6 Oeste 0 -- -- 98
2018-01-23 20:00:00 12.2 0 Calma 4 Sudeste 0 -- -- 97
2018-01-23 19:00:00 13.7 0 Calma 4 Este 0 -- -- 92
2018-01-23 18:00:00 14.4 0 Calma 5 Nordeste 0 -- -- 91
2018-01-23 17:00:00 15.1 3 Nordeste 6 Este 0 -- -- 91
2018-01-23 16:00:00 15.5 3 Nordeste 6 Nordeste 0 -- -- 86
2018-01-23 15:00:00 15.7 0 Calma 3 Nordeste 0 -- -- 87
2018-01-23 14:00:00 15.6 0 Calma 5 Sur 0 -- -- 87
2018-01-23 13:00:00 14.7 2 Sur 6 Oeste 0 -- -- 99
2018-01-23 12:00:00 13.2 3 Oeste 7 Sudoeste 0 -- -- 100
2018-01-23 11:00:00 12.3 4 Sudoeste 9 Oeste 0 -- -- 100
2018-01-23 10:00:00 11.7 6 Sudoeste 9 Sudoeste 0 -- -- 100
2018-01-23 09:00:00 11.4 4 Sudoeste 8 Oeste 0 -- -- 100
2018-01-23 08:00:00 11.3 7 Oeste 10 Oeste 0 -- -- 100
2018-01-23 07:00:00 11.4 8 Sudoeste 10 Sudoeste 0 -- -- 100
2018-01-23 06:00:00 11.7 5 Sudoeste 8 Oeste 0 -- -- 100
2018-01-23 05:00:00 11.8 5 Sudoeste 9 Sudoeste 0 -- -- 100
2018-01-23 04:00:00 12.1 5 Sudoeste 9 Sudoeste 0 -- -- 100
2018-01-23 03:00:00 12.2 5 Sudoeste 10 Oeste 0 -- -- 100
2018-01-23 02:00:00 12.3 7 Sudoeste 13 Sudoeste 0.2 -- -- 100
2018-01-23 01:00:00 12.3 8 Oeste 15 Sudoeste 0.4 -- -- 100
2018-01-23 00:00:00 12.2 4 Sudoeste 9 Sudoeste 1 -- -- 100
2018-01-22 23:00:00 12.2 4 Sudoeste 13 Sudoeste 1 -- -- 100
2018-01-22 22:00:00 12.2 6 Sudoeste 12 Sudoeste 1.2 -- -- 100
2018-01-22 21:00:00 12.2 7 Sudoeste 13 Sudoeste 1.2 -- -- 100
2018-01-22 20:00:00 12.3 6 Oeste 12 Sudoeste 0.8 -- -- 100
2018-01-22 19:00:00 12.2 7 Oeste 18 Oeste 0.4 -- -- 99
2018-01-22 18:00:00 12.3 7 Sudoeste 14 Sudoeste 0.4 -- -- 98
2018-01-22 17:00:00 12.7 11 Sudoeste 16 Oeste 0 -- -- 96
2018-01-22 16:00:00 13.4 12 Oeste 18 Oeste 0 -- -- 92
2018-01-22 15:00:00 14.8 5 Oeste 19 Oeste 0 -- -- 77
2018-01-22 14:00:00 15.3 12 Oeste 24 Oeste 0 -- -- 76
2018-01-22 13:00:00 14.8 13 Oeste 23 Oeste 0 -- -- 77
2018-01-22 12:00:00 14.7 9 Oeste 18 Oeste 0 -- -- 76
2018-01-22 11:00:00 12.7 10 Oeste 17 Oeste 0 -- -- 85
2018-01-22 10:00:00 11.4 9 Oeste 15 Oeste 0 -- -- 93
2018-01-22 09:00:00 10.7 12 Oeste 18 Oeste 0 -- -- 96
2018-01-22 08:00:00 10.6 6 Sudoeste 16 Oeste 0 -- -- 97
2018-01-22 07:00:00 10.6 11 Sudoeste 15 Sudoeste 0 -- -- 99
2018-01-22 06:00:00 10.5 10 Sudoeste 17 Oeste 0 -- -- 99
2018-01-22 05:00:00 10.4 12 Sudoeste 17 Sudoeste 0 -- -- 100
2018-01-22 04:00:00 10.6 9 Sudoeste 12 Sudoeste 0 -- -- 100
2018-01-22 03:00:00 11.1 5 Sudoeste 13 Sudoeste 0 -- -- 99
2018-01-22 02:00:00 11.7 6 Oeste 13 Noroeste 0 -- -- 98
2018-01-22 01:00:00 12 6 Oeste 13 Oeste 0 -- -- 97
2018-01-22 00:00:00 12.2 2 Sudoeste 10 Sudoeste 0 -- -- 97